sensor_id;sensor_type;location;lat;lon;timestamp;P1;durP1;ratioP1;P2;durP2;ratioP2
29878;SDS011;16752;53.364;-1.488;2023-04-06T00:00:11;6.85;;;6.15;;
29878;SDS011;16752;53.364;-1.488;2023-04-06T00:51:00;6.90;;;6.13;;
29878;SDS011;16752;53.364;-1.488;2023-04-06T00:53:44;6.95;;;6.25;;
29878;SDS011;16752;53.364;-1.488;2023-04-06T00:56:38;7.03;;;6.05;;
29878;SDS011;16752;53.364;-1.488;2023-04-06T00:59:23;6.97;;;6.15;;
29878;SDS011;16752;53.364;-1.488;2023-04-06T01:02:18;9.25;;;7.35;;
29878;SDS011;16752;53.364;-1.488;2023-04-06T01:05:11;7.65;;;6.80;;
29878;SDS011;16752;53.364;-1.488;2023-04-06T01:08:00;9.00;;;7.15;;
29878;SDS011;16752;53.364;-1.488;2023-04-06T01:11:03;8.70;;;7.90;;
29878;SDS011;16752;53.364;-1.488;2023-04-06T01:14:08;8.60;;;7.28;;
29878;SDS011;16752;53.364;-1.488;2023-04-06T01:16:57;8.20;;;7.32;;
29878;SDS011;16752;53.364;-1.488;2023-04-06T01:19:54;10.90;;;8.55;;
29878;SDS011;16752;53.364;-1.488;2023-04-06T01:22:38;8.82;;;7.78;;
29878;SDS011;16752;53.364;-1.488;2023-04-06T01:25:49;11.55;;;10.10;;
29878;SDS011;16752;53.364;-1.488;2023-04-06T01:28:45;13.07;;;9.98;;
29878;SDS011;16752;53.364;-1.488;2023-04-06T01:31:30;10.63;;;8.55;;
29878;SDS011;16752;53.364;-1.488;2023-04-06T01:34:30;10.20;;;8.68;;
29878;SDS011;16752;53.364;-1.488;2023-04-06T01:37:27;11.50;;;8.95;;
29878;SDS011;16752;53.364;-1.488;2023-04-06T01:43:02;10.45;;;8.43;;
29878;SDS011;16752;53.364;-1.488;2023-04-06T01:45:54;11.95;;;9.52;;
29878;SDS011;16752;53.364;-1.488;2023-04-06T01:48:58;12.27;;;10.20;;
29878;SDS011;16752;53.364;-1.488;2023-04-06T02:02:07;11.52;;;8.52;;
29878;SDS011;16752;53.364;-1.488;2023-04-06T02:12:13;10.52;;;8.93;;
29878;SDS011;16752;53.364;-1.488;2023-04-06T02:15:21;11.90;;;8.43;;
29878;SDS011;16752;53.364;-1.488;2023-04-06T02:18:30;10.13;;;8.65;;
29878;SDS011;16752;53.364;-1.488;2023-04-06T02:21:35;10.43;;;8.40;;
29878;SDS011;16752;53.364;-1.488;2023-04-06T02:28:58;8.52;;;7.40;;
29878;SDS011;16752;53.364;-1.488;2023-04-06T02:31:45;9.80;;;6.93;;
29878;SDS011;16752;53.364;-1.488;2023-04-06T02:50:13;8.65;;;5.70;;
29878;SDS011;16752;53.364;-1.488;2023-04-06T02:57:14;7.47;;;5.50;;
29878;SDS011;16752;53.364;-1.488;2023-04-06T03:03:30;6.75;;;5.15;;
29878;SDS011;16752;53.364;-1.488;2023-04-06T03:07:04;5.20;;;4.70;;
29878;SDS011;16752;53.364;-1.488;2023-04-06T03:24:28;26.00;;;11.80;;
29878;SDS011;16752;53.364;-1.488;2023-04-06T03:27:54;27.48;;;13.82;;
29878;SDS011;16752;53.364;-1.488;2023-04-06T03:39:01;23.92;;;12.13;;
29878;SDS011;16752;53.364;-1.488;2023-04-06T03:42:25;19.75;;;10.63;;
29878;SDS011;16752;53.364;-1.488;2023-04-06T03:45:23;11.65;;;7.78;;
29878;SDS011;16752;53.364;-1.488;2023-04-06T03:52:03;14.23;;;8.88;;
29878;SDS011;16752;53.364;-1.488;2023-04-06T03:58:33;15.48;;;8.60;;
29878;SDS011;16752;53.364;-1.488;2023-04-06T04:01:40;10.02;;;6.72;;
29878;SDS011;16752;53.364;-1.488;2023-04-06T04:11:23;6.97;;;4.68;;
29878;SDS011;16752;53.364;-1.488;2023-04-06T04:14:57;5.78;;;4.93;;
29878;SDS011;16752;53.364;-1.488;2023-04-06T04:28:44;6.30;;;5.28;;
29878;SDS011;16752;53.364;-1.488;2023-04-06T04:32:04;4.82;;;3.97;;
29878;SDS011;16752;53.364;-1.488;2023-04-06T04:38:42;6.50;;;4.00;;
29878;SDS011;16752;53.364;-1.488;2023-04-06T04:42:12;3.83;;;3.45;;
29878;SDS011;16752;53.364;-1.488;2023-04-06T04:52:48;4.47;;;3.65;;
29878;SDS011;16752;53.364;-1.488;2023-04-06T04:55:52;8.38;;;4.53;;
29878;SDS011;16752;53.364;-1.488;2023-04-06T04:58:55;6.75;;;4.10;;
29878;SDS011;16752;53.364;-1.488;2023-04-06T05:02:18;11.63;;;6.60;;
29878;SDS011;16752;53.364;-1.488;2023-04-06T05:05:23;9.50;;;5.88;;
29878;SDS011;16752;53.364;-1.488;2023-04-06T05:12:28;7.88;;;5.85;;
29878;SDS011;16752;53.364;-1.488;2023-04-06T05:15:56;6.93;;;5.07;;
29878;SDS011;16752;53.364;-1.488;2023-04-06T05:19:27;12.40;;;6.85;;
29878;SDS011;16752;53.364;-1.488;2023-04-06T05:25:56;11.15;;;7.78;;
29878;SDS011;16752;53.364;-1.488;2023-04-06T05:29:06;8.10;;;6.68;;
29878;SDS011;16752;53.364;-1.488;2023-04-06T05:31:55;10.55;;;7.15;;
29878;SDS011;16752;53.364;-1.488;2023-04-06T05:38:07;8.75;;;6.78;;
29878;SDS011;16752;53.364;-1.488;2023-04-06T05:41:12;12.98;;;7.03;;
29878;SDS011;16752;53.364;-1.488;2023-04-06T05:43:55;14.00;;;8.40;;
29878;SDS011;16752;53.364;-1.488;2023-04-06T05:46:39;12.73;;;7.82;;
29878;SDS011;16752;53.364;-1.488;2023-04-06T05:49:23;10.80;;;7.13;;
29878;SDS011;16752;53.364;-1.488;2023-04-06T05:52:08;10.57;;;6.90;;
29878;SDS011;16752;53.364;-1.488;2023-04-06T05:54:53;12.48;;;8.68;;
29878;SDS011;16752;53.364;-1.488;2023-04-06T05:57:37;14.85;;;8.00;;
29878;SDS011;16752;53.364;-1.488;2023-04-06T06:00:21;12.18;;;8.40;;
29878;SDS011;16752;53.364;-1.488;2023-04-06T06:03:06;14.32;;;8.88;;
29878;SDS011;16752;53.364;-1.488;2023-04-06T06:05:51;17.85;;;8.77;;
29878;SDS011;16752;53.364;-1.488;2023-04-06T06:08:35;14.68;;;10.23;;
29878;SDS011;16752;53.364;-1.488;2023-04-06T06:11:20;14.65;;;9.30;;
29878;SDS011;16752;53.364;-1.488;2023-04-06T06:14:04;11.23;;;7.60;;
29878;SDS011;16752;53.364;-1.488;2023-04-06T06:16:48;16.70;;;9.80;;
29878;SDS011;16752;53.364;-1.488;2023-04-06T06:19:32;13.98;;;9.15;;
29878;SDS011;16752;53.364;-1.488;2023-04-06T06:22:16;14.60;;;9.23;;
29878;SDS011;16752;53.364;-1.488;2023-04-06T06:25:00;13.95;;;9.50;;
29878;SDS011;16752;53.364;-1.488;2023-04-06T06:27:47;12.77;;;9.15;;
29878;SDS011;16752;53.364;-1.488;2023-04-06T06:30:32;13.77;;;8.52;;
29878;SDS011;16752;53.364;-1.488;2023-04-06T06:33:16;10.50;;;6.95;;
29878;SDS011;16752;53.364;-1.488;2023-04-06T06:36:00;13.93;;;6.78;;
29878;SDS011;16752;53.364;-1.488;2023-04-06T06:38:44;9.10;;;6.50;;
29878;SDS011;16752;53.364;-1.488;2023-04-06T06:41:29;12.55;;;6.95;;
29878;SDS011;16752;53.364;-1.488;2023-04-06T06:44:13;8.40;;;5.95;;
29878;SDS011;16752;53.364;-1.488;2023-04-06T06:46:58;8.18;;;5.55;;
29878;SDS011;16752;53.364;-1.488;2023-04-06T06:49:41;7.63;;;5.25;;
29878;SDS011;16752;53.364;-1.488;2023-04-06T06:52:28;7.03;;;5.32;;
29878;SDS011;16752;53.364;-1.488;2023-04-06T06:55:12;11.13;;;6.20;;
29878;SDS011;16752;53.364;-1.488;2023-04-06T06:57:56;7.88;;;5.80;;
29878;SDS011;16752;53.364;-1.488;2023-04-06T07:00:40;7.78;;;5.18;;
29878;SDS011;16752;53.364;-1.488;2023-04-06T07:03:25;7.03;;;4.97;;
29878;SDS011;16752;53.364;-1.488;2023-04-06T07:06:12;6.97;;;4.90;;
29878;SDS011;16752;53.364;-1.488;2023-04-06T07:08:56;6.15;;;4.78;;
29878;SDS011;16752;53.364;-1.488;2023-04-06T07:11:40;8.82;;;4.88;;
29878;SDS011;16752;53.364;-1.488;2023-04-06T07:14:24;6.70;;;4.20;;
29878;SDS011;16752;53.364;-1.488;2023-04-06T07:17:09;9.32;;;4.72;;
29878;SDS011;16752;53.364;-1.488;2023-04-06T07:19:53;5.50;;;3.03;;
29878;SDS011;16752;53.364;-1.488;2023-04-06T07:22:38;3.58;;;2.92;;
29878;SDS011;16752;53.364;-1.488;2023-04-06T07:25:22;6.55;;;3.45;;
29878;SDS011;16752;53.364;-1.488;2023-04-06T07:28:06;6.32;;;3.63;;
29878;SDS011;16752;53.364;-1.488;2023-04-06T07:30:51;8.52;;;4.25;;
29878;SDS011;16752;53.364;-1.488;2023-04-06T07:33:35;6.28;;;5.68;;
29878;SDS011;16752;53.364;-1.488;2023-04-06T07:36:20;6.07;;;4.40;;
29878;SDS011;16752;53.364;-1.488;2023-04-06T07:39:03;7.03;;;4.45;;
29878;SDS011;16752;53.364;-1.488;2023-04-06T07:41:47;6.30;;;2.40;;
29878;SDS011;16752;53.364;-1.488;2023-04-06T07:44:31;4.68;;;2.28;;
29878;SDS011;16752;53.364;-1.488;2023-04-06T07:47:15;10.27;;;2.20;;
29878;SDS011;16752;53.364;-1.488;2023-04-06T07:49:59;7.90;;;2.50;;
29878;SDS011;16752;53.364;-1.488;2023-04-06T07:52:46;7.00;;;2.15;;
29878;SDS011;16752;53.364;-1.488;2023-04-06T07:55:31;5.50;;;1.80;;
29878;SDS011;16752;53.364;-1.488;2023-04-06T07:58:36;5.70;;;2.22;;
29878;SDS011;16752;53.364;-1.488;2023-04-06T08:01:41;8.63;;;2.08;;
29878;SDS011;16752;53.364;-1.488;2023-04-06T08:04:29;6.60;;;1.95;;
29878;SDS011;16752;53.364;-1.488;2023-04-06T08:07:20;3.55;;;1.77;;
29878;SDS011;16752;53.364;-1.488;2023-04-06T08:10:04;5.35;;;1.58;;
29878;SDS011;16752;53.364;-1.488;2023-04-06T08:13:01;4.30;;;1.88;;
29878;SDS011;16752;53.364;-1.488;2023-04-06T08:29:54;8.15;;;2.20;;
29878;SDS011;16752;53.364;-1.488;2023-04-06T08:40:21;9.95;;;2.03;;
29878;SDS011;16752;53.364;-1.488;2023-04-06T08:57:09;11.80;;;2.40;;
29878;SDS011;16752;53.364;-1.488;2023-04-06T08:59:57;7.75;;;2.05;;
29878;SDS011;16752;53.364;-1.488;2023-04-06T09:03:21;5.75;;;1.63;;
29878;SDS011;16752;53.364;-1.488;2023-04-06T09:06:10;6.78;;;1.90;;
29878;SDS011;16752;53.364;-1.488;2023-04-06T09:09:13;13.45;;;2.80;;
29878;SDS011;16752;53.364;-1.488;2023-04-06T09:12:12;9.02;;;2.00;;
29878;SDS011;16752;53.364;-1.488;2023-04-06T09:19:03;10.07;;;2.30;;
29878;SDS011;16752;53.364;-1.488;2023-04-06T09:22:13;8.60;;;2.80;;
29878;SDS011;16752;53.364;-1.488;2023-04-06T09:30:36;13.93;;;3.00;;
29878;SDS011;16752;53.364;-1.488;2023-04-06T09:33:25;13.50;;;2.83;;
29878;SDS011;16752;53.364;-1.488;2023-04-06T09:36:57;13.32;;;3.25;;
29878;SDS011;16752;53.364;-1.488;2023-04-06T09:39:48;8.95;;;2.33;;
29878;SDS011;16752;53.364;-1.488;2023-04-06T09:43:06;11.95;;;2.50;;
29878;SDS011;16752;53.364;-1.488;2023-04-06T09:46:17;8.93;;;2.40;;
29878;SDS011;16752;53.364;-1.488;2023-04-06T09:49:06;11.20;;;1.80;;
29878;SDS011;16752;53.364;-1.488;2023-04-06T09:51:59;7.10;;;2.30;;
29878;SDS011;16752;53.364;-1.488;2023-04-06T09:54:45;11.23;;;2.03;;
29878;SDS011;16752;53.364;-1.488;2023-04-06T09:58:13;8.52;;;2.17;;
29878;SDS011;16752;53.364;-1.488;2023-04-06T10:01:12;11.43;;;2.10;;
29878;SDS011;16752;53.364;-1.488;2023-04-06T10:04:05;6.22;;;2.50;;
29878;SDS011;16752;53.364;-1.488;2023-04-06T10:06:51;12.57;;;2.88;;
29878;SDS011;16752;53.364;-1.488;2023-04-06T10:09:36;10.40;;;2.17;;
29878;SDS011;16752;53.364;-1.488;2023-04-06T10:12:21;8.07;;;2.42;;
29878;SDS011;16752;53.364;-1.488;2023-04-06T10:15:17;8.48;;;1.83;;
29878;SDS011;16752;53.364;-1.488;2023-04-06T10:18:17;9.35;;;2.10;;
29878;SDS011;16752;53.364;-1.488;2023-04-06T10:21:25;7.72;;;2.13;;
29878;SDS011;16752;53.364;-1.488;2023-04-06T10:24:14;8.52;;;2.30;;
29878;SDS011;16752;53.364;-1.488;2023-04-06T10:27:04;10.10;;;2.08;;
29878;SDS011;16752;53.364;-1.488;2023-04-06T10:29:50;8.00;;;2.33;;
29878;SDS011;16752;53.364;-1.488;2023-04-06T10:32:52;8.55;;;1.95;;
29878;SDS011;16752;53.364;-1.488;2023-04-06T10:35:42;6.82;;;1.92;;
29878;SDS011;16752;53.364;-1.488;2023-04-06T10:38:34;6.20;;;1.98;;
29878;SDS011;16752;53.364;-1.488;2023-04-06T10:41:44;10.25;;;1.90;;
29878;SDS011;16752;53.364;-1.488;2023-04-06T10:44:29;17.85;;;2.28;;
29878;SDS011;16752;53.364;-1.488;2023-04-06T10:47:16;9.48;;;1.77;;
29878;SDS011;16752;53.364;-1.488;2023-04-06T10:50:13;7.90;;;2.10;;
29878;SDS011;16752;53.364;-1.488;2023-04-06T10:53:04;6.93;;;2.03;;
29878;SDS011;16752;53.364;-1.488;2023-04-06T10:55:56;12.68;;;2.20;;
29878;SDS011;16752;53.364;-1.488;2023-04-06T10:58:45;6.30;;;2.05;;
29878;SDS011;16752;53.364;-1.488;2023-04-06T11:01:53;7.97;;;2.30;;
29878;SDS011;16752;53.364;-1.488;2023-04-06T11:04:49;8.75;;;2.33;;
29878;SDS011;16752;53.364;-1.488;2023-04-06T11:07:59;10.75;;;2.15;;
29878;SDS011;16752;53.364;-1.488;2023-04-06T11:11:18;6.72;;;1.83;;
29878;SDS011;16752;53.364;-1.488;2023-04-06T11:17:36;8.85;;;2.63;;
29878;SDS011;16752;53.364;-1.488;2023-04-06T11:20:20;12.95;;;2.30;;
29878;SDS011;16752;53.364;-1.488;2023-04-06T11:23:07;9.35;;;2.30;;
29878;SDS011;16752;53.364;-1.488;2023-04-06T11:25:51;10.68;;;1.95;;
29878;SDS011;16752;53.364;-1.488;2023-04-06T11:28:36;6.10;;;2.30;;
29878;SDS011;16752;53.364;-1.488;2023-04-06T11:31:24;4.40;;;1.55;;
29878;SDS011;16752;53.364;-1.488;2023-04-06T11:34:12;5.55;;;1.80;;
29878;SDS011;16752;53.364;-1.488;2023-04-06T11:37:03;7.95;;;1.80;;
29878;SDS011;16752;53.364;-1.488;2023-04-06T11:39:54;9.32;;;2.10;;
29878;SDS011;16752;53.364;-1.488;2023-04-06T11:42:44;6.95;;;2.03;;
29878;SDS011;16752;53.364;-1.488;2023-04-06T11:45:58;5.57;;;1.42;;
29878;SDS011;16752;53.364;-1.488;2023-04-06T11:52:23;6.68;;;2.22;;
29878;SDS011;16752;53.364;-1.488;2023-04-06T11:55:38;4.80;;;1.80;;
29878;SDS011;16752;53.364;-1.488;2023-04-06T11:58:47;4.72;;;2.10;;
29878;SDS011;16752;53.364;-1.488;2023-04-06T12:01:44;8.02;;;2.20;;
29878;SDS011;16752;53.364;-1.488;2023-04-06T12:04:31;6.18;;;1.70;;
29878;SDS011;16752;53.364;-1.488;2023-04-06T12:07:25;10.45;;;2.92;;
29878;SDS011;16752;53.364;-1.488;2023-04-06T12:10:12;5.35;;;2.20;;
29878;SDS011;16752;53.364;-1.488;2023-04-06T12:16:46;13.57;;;2.33;;
29878;SDS011;16752;53.364;-1.488;2023-04-06T12:19:56;9.05;;;2.10;;
29878;SDS011;16752;53.364;-1.488;2023-04-06T12:22:43;7.22;;;1.80;;
29878;SDS011;16752;53.364;-1.488;2023-04-06T12:25:30;11.82;;;1.92;;
29878;SDS011;16752;53.364;-1.488;2023-04-06T12:28:14;10.13;;;2.10;;
29878;SDS011;16752;53.364;-1.488;2023-04-06T12:30:59;9.45;;;1.58;;
29878;SDS011;16752;53.364;-1.488;2023-04-06T12:40:01;6.82;;;2.08;;
29878;SDS011;16752;53.364;-1.488;2023-04-06T12:43:04;7.97;;;2.33;;
29878;SDS011;16752;53.364;-1.488;2023-04-06T12:45:48;7.22;;;1.77;;
29878;SDS011;16752;53.364;-1.488;2023-04-06T12:48:38;7.63;;;2.38;;
29878;SDS011;16752;53.364;-1.488;2023-04-06T12:51:55;6.57;;;1.98;;
29878;SDS011;16752;53.364;-1.488;2023-04-06T12:54:57;7.45;;;2.05;;
29878;SDS011;16752;53.364;-1.488;2023-04-06T13:06:16;8.27;;;2.22;;
29878;SDS011;16752;53.364;-1.488;2023-04-06T13:13:29;3.78;;;1.25;;
29878;SDS011;16752;53.364;-1.488;2023-04-06T13:16:36;7.82;;;1.27;;
29878;SDS011;16752;53.364;-1.488;2023-04-06T13:19:30;6.28;;;1.83;;
29878;SDS011;16752;53.364;-1.488;2023-04-06T13:25:33;4.57;;;1.42;;
29878;SDS011;16752;53.364;-1.488;2023-04-06T13:35:00;4.88;;;1.98;;
29878;SDS011;16752;53.364;-1.488;2023-04-06T13:37:51;3.35;;;1.65;;
29878;SDS011;16752;53.364;-1.488;2023-04-06T13:40:38;7.57;;;1.35;;
29878;SDS011;16752;53.364;-1.488;2023-04-06T13:43:27;3.58;;;1.60;;
29878;SDS011;16752;53.364;-1.488;2023-04-06T13:46:32;5.40;;;1.92;;
29878;SDS011;16752;53.364;-1.488;2023-04-06T13:49:34;3.83;;;1.83;;
29878;SDS011;16752;53.364;-1.488;2023-04-06T13:52:28;4.32;;;1.60;;
29878;SDS011;16752;53.364;-1.488;2023-04-06T13:58:49;4.40;;;1.45;;
29878;SDS011;16752;53.364;-1.488;2023-04-06T14:01:44;5.32;;;1.67;;
29878;SDS011;16752;53.364;-1.488;2023-04-06T14:04:34;7.70;;;2.08;;
29878;SDS011;16752;53.364;-1.488;2023-04-06T14:07:38;3.80;;;1.13;;
29878;SDS011;16752;53.364;-1.488;2023-04-06T14:10:27;11.85;;;1.65;;
29878;SDS011;16752;53.364;-1.488;2023-04-06T14:13:14;4.57;;;1.40;;
29878;SDS011;16752;53.364;-1.488;2023-04-06T14:16:09;3.30;;;1.08;;
29878;SDS011;16752;53.364;-1.488;2023-04-06T14:18:53;5.15;;;1.27;;
29878;SDS011;16752;53.364;-1.488;2023-04-06T14:21:41;6.43;;;2.37;;
29878;SDS011;16752;53.364;-1.488;2023-04-06T14:24:30;8.63;;;1.50;;
29878;SDS011;16752;53.364;-1.488;2023-04-06T14:27:14;4.28;;;1.67;;
29878;SDS011;16752;53.364;-1.488;2023-04-06T14:29:58;7.70;;;2.00;;
29878;SDS011;16752;53.364;-1.488;2023-04-06T14:33:15;6.55;;;1.85;;
29878;SDS011;16752;53.364;-1.488;2023-04-06T14:36:05;5.72;;;1.55;;
29878;SDS011;16752;53.364;-1.488;2023-04-06T14:45:34;5.05;;;1.50;;
29878;SDS011;16752;53.364;-1.488;2023-04-06T14:48:22;7.07;;;2.15;;
29878;SDS011;16752;53.364;-1.488;2023-04-06T14:51:15;5.47;;;1.50;;
29878;SDS011;16752;53.364;-1.488;2023-04-06T14:54:03;4.38;;;1.27;;
29878;SDS011;16752;53.364;-1.488;2023-04-06T14:56:56;4.15;;;1.48;;
29878;SDS011;16752;53.364;-1.488;2023-04-06T14:59:43;8.82;;;1.85;;
29878;SDS011;16752;53.364;-1.488;2023-04-06T15:02:27;7.55;;;1.92;;
29878;SDS011;16752;53.364;-1.488;2023-04-06T15:05:22;6.70;;;1.42;;
29878;SDS011;16752;53.364;-1.488;2023-04-06T15:08:07;4.70;;;1.15;;
29878;SDS011;16752;53.364;-1.488;2023-04-06T15:10:52;6.30;;;1.45;;
29878;SDS011;16752;53.364;-1.488;2023-04-06T15:13:53;4.28;;;1.15;;
29878;SDS011;16752;53.364;-1.488;2023-04-06T15:17:03;5.40;;;1.38;;
29878;SDS011;16752;53.364;-1.488;2023-04-06T15:19:47;4.47;;;1.60;;
29878;SDS011;16752;53.364;-1.488;2023-04-06T15:22:34;2.63;;;1.25;;
29878;SDS011;16752;53.364;-1.488;2023-04-06T15:25:21;3.08;;;1.23;;
29878;SDS011;16752;53.364;-1.488;2023-04-06T15:28:05;6.10;;;1.67;;
29878;SDS011;16752;53.364;-1.488;2023-04-06T15:30:52;1.50;;;1.00;;
29878;SDS011;16752;53.364;-1.488;2023-04-06T15:33:37;6.53;;;1.20;;
29878;SDS011;16752;53.364;-1.488;2023-04-06T15:39:13;2.83;;;1.38;;
29878;SDS011;16752;53.364;-1.488;2023-04-06T15:42:06;3.42;;;1.05;;
29878;SDS011;16752;53.364;-1.488;2023-04-06T15:45:10;4.55;;;1.20;;
29878;SDS011;16752;53.364;-1.488;2023-04-06T15:47:54;1.63;;;0.90;;
29878;SDS011;16752;53.364;-1.488;2023-04-06T15:50:38;2.50;;;0.80;;
29878;SDS011;16752;53.364;-1.488;2023-04-06T15:53:29;3.75;;;0.90;;
29878;SDS011;16752;53.364;-1.488;2023-04-06T15:56:13;5.35;;;1.05;;
29878;SDS011;16752;53.364;-1.488;2023-04-06T15:58:57;2.97;;;1.15;;
29878;SDS011;16752;53.364;-1.488;2023-04-06T16:02:02;1.20;;;0.88;;
29878;SDS011;16752;53.364;-1.488;2023-04-06T16:04:46;4.95;;;1.15;;
29878;SDS011;16752;53.364;-1.488;2023-04-06T16:07:30;2.30;;;1.10;;
29878;SDS011;16752;53.364;-1.488;2023-04-06T16:10:15;2.78;;;1.00;;
29878;SDS011;16752;53.364;-1.488;2023-04-06T16:12:59;3.28;;;1.08;;
29878;SDS011;16752;53.364;-1.488;2023-04-06T16:15:53;6.45;;;1.50;;
29878;SDS011;16752;53.364;-1.488;2023-04-06T16:18:39;2.75;;;1.05;;
29878;SDS011;16752;53.364;-1.488;2023-04-06T16:29:54;4.82;;;1.40;;
29878;SDS011;16752;53.364;-1.488;2023-04-06T16:33:13;4.65;;;1.30;;
29878;SDS011;16752;53.364;-1.488;2023-04-06T16:35:59;4.03;;;1.65;;
29878;SDS011;16752;53.364;-1.488;2023-04-06T17:04:20;5.75;;;1.60;;
29878;SDS011;16752;53.364;-1.488;2023-04-06T17:09:52;2.35;;;1.27;;
29878;SDS011;16752;53.364;-1.488;2023-04-06T17:12:36;2.75;;;1.23;;
29878;SDS011;16752;53.364;-1.488;2023-04-06T17:15:20;3.42;;;1.45;;
29878;SDS011;16752;53.364;-1.488;2023-04-06T17:18:10;5.22;;;1.50;;
29878;SDS011;16752;53.364;-1.488;2023-04-06T17:20:54;10.70;;;1.58;;
29878;SDS011;16752;53.364;-1.488;2023-04-06T17:23:39;6.40;;;1.48;;
29878;SDS011;16752;53.364;-1.488;2023-04-06T17:26:24;6.13;;;1.25;;
29878;SDS011;16752;53.364;-1.488;2023-04-06T17:29:08;8.05;;;1.98;;
29878;SDS011;16752;53.364;-1.488;2023-04-06T17:31:59;5.35;;;1.00;;
29878;SDS011;16752;53.364;-1.488;2023-04-06T17:34:53;5.53;;;1.52;;
29878;SDS011;16752;53.364;-1.488;2023-04-06T17:37:38;8.27;;;1.60;;
29878;SDS011;16752;53.364;-1.488;2023-04-06T17:40:34;7.45;;;1.50;;
29878;SDS011;16752;53.364;-1.488;2023-04-06T17:43:21;7.63;;;1.75;;
29878;SDS011;16752;53.364;-1.488;2023-04-06T17:46:07;3.42;;;1.60;;
29878;SDS011;16752;53.364;-1.488;2023-04-06T17:51:59;5.13;;;1.23;;
29878;SDS011;16752;53.364;-1.488;2023-04-06T17:54:55;2.78;;;1.05;;
29878;SDS011;16752;53.364;-1.488;2023-04-06T17:58:28;17.23;;;1.50;;
29878;SDS011;16752;53.364;-1.488;2023-04-06T18:01:12;8.15;;;1.95;;
29878;SDS011;16752;53.364;-1.488;2023-04-06T18:03:57;9.95;;;2.13;;
29878;SDS011;16752;53.364;-1.488;2023-04-06T18:10:12;6.80;;;1.48;;
29878;SDS011;16752;53.364;-1.488;2023-04-06T18:13:01;4.97;;;1.77;;
29878;SDS011;16752;53.364;-1.488;2023-04-06T18:15:45;7.85;;;1.52;;
29878;SDS011;16752;53.364;-1.488;2023-04-06T18:18:38;6.47;;;1.67;;
29878;SDS011;16752;53.364;-1.488;2023-04-06T18:21:22;5.65;;;1.50;;
29878;SDS011;16752;53.364;-1.488;2023-04-06T18:27:20;10.40;;;2.22;;
29878;SDS011;16752;53.364;-1.488;2023-04-06T18:30:41;6.30;;;1.65;;
29878;SDS011;16752;53.364;-1.488;2023-04-06T18:37:27;7.35;;;1.67;;
29878;SDS011;16752;53.364;-1.488;2023-04-06T18:44:46;4.72;;;1.35;;
29878;SDS011;16752;53.364;-1.488;2023-04-06T18:47:33;5.35;;;1.63;;
29878;SDS011;16752;53.364;-1.488;2023-04-06T18:50:17;8.65;;;1.83;;
29878;SDS011;16752;53.364;-1.488;2023-04-06T18:53:02;6.50;;;1.70;;
29878;SDS011;16752;53.364;-1.488;2023-04-06T18:55:46;7.75;;;1.85;;
29878;SDS011;16752;53.364;-1.488;2023-04-06T18:58:32;7.43;;;1.40;;
29878;SDS011;16752;53.364;-1.488;2023-04-06T19:01:20;3.70;;;1.70;;
29878;SDS011;16752;53.364;-1.488;2023-04-06T19:04:08;7.93;;;1.83;;
29878;SDS011;16752;53.364;-1.488;2023-04-06T19:06:59;5.68;;;1.83;;
29878;SDS011;16752;53.364;-1.488;2023-04-06T19:10:04;9.00;;;2.00;;
29878;SDS011;16752;53.364;-1.488;2023-04-06T19:12:51;8.98;;;1.45;;
29878;SDS011;16752;53.364;-1.488;2023-04-06T19:15:41;8.73;;;1.83;;
29878;SDS011;16752;53.364;-1.488;2023-04-06T19:18:26;9.75;;;1.73;;
29878;SDS011;16752;53.364;-1.488;2023-04-06T19:24:00;12.80;;;1.90;;
29878;SDS011;16752;53.364;-1.488;2023-04-06T19:26:49;6.35;;;2.28;;
29878;SDS011;16752;53.364;-1.488;2023-04-06T19:29:48;6.18;;;1.85;;
29878;SDS011;16752;53.364;-1.488;2023-04-06T19:35:45;10.98;;;2.03;;
29878;SDS011;16752;53.364;-1.488;2023-04-06T19:38:30;13.70;;;2.63;;
29878;SDS011;16752;53.364;-1.488;2023-04-06T19:41:20;7.72;;;1.80;;
29878;SDS011;16752;53.364;-1.488;2023-04-06T19:44:18;4.22;;;1.48;;
29878;SDS011;16752;53.364;-1.488;2023-04-06T19:50:05;9.85;;;1.80;;
29878;SDS011;16752;53.364;-1.488;2023-04-06T19:53:00;9.90;;;2.40;;
29878;SDS011;16752;53.364;-1.488;2023-04-06T19:55:46;6.63;;;2.03;;
29878;SDS011;16752;53.364;-1.488;2023-04-06T19:58:35;6.88;;;1.63;;
29878;SDS011;16752;53.364;-1.488;2023-04-06T20:01:25;6.82;;;1.58;;
29878;SDS011;16752;53.364;-1.488;2023-04-06T20:04:10;9.60;;;2.65;;
29878;SDS011;16752;53.364;-1.488;2023-04-06T20:07:13;13.02;;;2.47;;
29878;SDS011;16752;53.364;-1.488;2023-04-06T20:10:11;12.32;;;1.90;;
29878;SDS011;16752;53.364;-1.488;2023-04-06T20:12:59;11.10;;;2.40;;
29878;SDS011;16752;53.364;-1.488;2023-04-06T20:15:44;11.73;;;2.00;;
29878;SDS011;16752;53.364;-1.488;2023-04-06T20:18:32;8.40;;;2.53;;
29878;SDS011;16752;53.364;-1.488;2023-04-06T20:21:16;9.25;;;2.03;;
29878;SDS011;16752;53.364;-1.488;2023-04-06T20:24:02;6.35;;;2.13;;
29878;SDS011;16752;53.364;-1.488;2023-04-06T20:26:47;7.35;;;2.17;;
29878;SDS011;16752;53.364;-1.488;2023-04-06T20:29:36;6.25;;;1.65;;
29878;SDS011;16752;53.364;-1.488;2023-04-06T20:32:20;11.25;;;2.10;;
29878;SDS011;16752;53.364;-1.488;2023-04-06T20:37:56;7.07;;;2.17;;
29878;SDS011;16752;53.364;-1.488;2023-04-06T20:40:43;6.35;;;1.88;;
29878;SDS011;16752;53.364;-1.488;2023-04-06T20:43:40;11.25;;;2.55;;
29878;SDS011;16752;53.364;-1.488;2023-04-06T20:46:24;10.38;;;2.25;;
29878;SDS011;16752;53.364;-1.488;2023-04-06T20:49:08;10.32;;;2.47;;
29878;SDS011;16752;53.364;-1.488;2023-04-06T20:52:25;7.10;;;1.52;;
29878;SDS011;16752;53.364;-1.488;2023-04-06T20:55:16;8.43;;;1.70;;
29878;SDS011;16752;53.364;-1.488;2023-04-06T20:58:21;6.70;;;1.80;;
29878;SDS011;16752;53.364;-1.488;2023-04-06T21:01:22;13.10;;;2.45;;
29878;SDS011;16752;53.364;-1.488;2023-04-06T21:04:41;9.68;;;1.90;;
29878;SDS011;16752;53.364;-1.488;2023-04-06T21:11:03;8.45;;;1.90;;
29878;SDS011;16752;53.364;-1.488;2023-04-06T21:17:36;14.43;;;2.55;;
29878;SDS011;16752;53.364;-1.488;2023-04-06T21:35:19;16.75;;;4.00;;
29878;SDS011;16752;53.364;-1.488;2023-04-06T21:38:19;12.15;;;2.65;;
29878;SDS011;16752;53.364;-1.488;2023-04-06T21:41:09;20.15;;;2.60;;
29878;SDS011;16752;53.364;-1.488;2023-04-06T21:43:57;9.25;;;2.42;;
29878;SDS011;16752;53.364;-1.488;2023-04-06T21:47:03;10.73;;;2.72;;
29878;SDS011;16752;53.364;-1.488;2023-04-06T21:49:54;9.30;;;2.13;;
29878;SDS011;16752;53.364;-1.488;2023-04-06T21:52:52;11.25;;;2.22;;
29878;SDS011;16752;53.364;-1.488;2023-04-06T21:55:45;7.15;;;2.03;;
29878;SDS011;16752;53.364;-1.488;2023-04-06T22:02:33;6.68;;;2.25;;
29878;SDS011;16752;53.364;-1.488;2023-04-06T22:05:34;7.85;;;1.88;;
29878;SDS011;16752;53.364;-1.488;2023-04-06T22:08:22;10.07;;;2.22;;
29878;SDS011;16752;53.364;-1.488;2023-04-06T22:11:18;10.82;;;2.10;;
29878;SDS011;16752;53.364;-1.488;2023-04-06T22:17:47;6.53;;;1.70;;
29878;SDS011;16752;53.364;-1.488;2023-04-06T22:20:58;9.75;;;2.15;;
29878;SDS011;16752;53.364;-1.488;2023-04-06T22:23:46;8.50;;;1.60;;
29878;SDS011;16752;53.364;-1.488;2023-04-06T22:27:00;8.07;;;2.28;;
29878;SDS011;16752;53.364;-1.488;2023-04-06T22:29:59;8.57;;;1.52;;
29878;SDS011;16752;53.364;-1.488;2023-04-06T22:33:15;15.10;;;1.88;;
29878;SDS011;16752;53.364;-1.488;2023-04-06T22:51:11;7.00;;;1.98;;
29878;SDS011;16752;53.364;-1.488;2023-04-06T22:54:14;10.93;;;1.80;;
29878;SDS011;16752;53.364;-1.488;2023-04-06T22:57:15;9.00;;;2.35;;
29878;SDS011;16752;53.364;-1.488;2023-04-06T23:00:08;9.85;;;2.05;;
29878;SDS011;16752;53.364;-1.488;2023-04-06T23:06:28;9.30;;;1.90;;
29878;SDS011;16752;53.364;-1.488;2023-04-06T23:09:59;5.50;;;1.80;;
29878;SDS011;16752;53.364;-1.488;2023-04-06T23:12:52;5.80;;;2.28;;
29878;SDS011;16752;53.364;-1.488;2023-04-06T23:23:07;11.43;;;1.60;;
29878;SDS011;16752;53.364;-1.488;2023-04-06T23:29:21;5.30;;;1.33;;
29878;SDS011;16752;53.364;-1.488;2023-04-06T23:32:21;6.75;;;1.25;;